sensor_id;sensor_type;location;lat;lon;timestamp;P1;durP1;ratioP1;P2;durP2;ratioP2
7883;SDS011;3987;51.458;7.238;2023-02-15T00:00:44;28.17;;;18.70;;
7883;SDS011;3987;51.458;7.238;2023-02-15T00:15:45;29.90;;;18.63;;
7883;SDS011;3987;51.458;7.238;2023-02-15T00:30:45;27.13;;;18.40;;
7883;SDS011;3987;51.458;7.238;2023-02-15T00:45:46;27.80;;;18.97;;
7883;SDS011;3987;51.458;7.238;2023-02-15T01:00:46;29.90;;;20.17;;
7883;SDS011;3987;51.458;7.238;2023-02-15T01:15:54;34.22;;;21.02;;
7883;SDS011;3987;51.458;7.238;2023-02-15T01:30:54;33.03;;;21.30;;
7883;SDS011;3987;51.458;7.238;2023-02-15T01:45:55;30.83;;;20.60;;
7883;SDS011;3987;51.458;7.238;2023-02-15T02:00:56;32.03;;;20.53;;
7883;SDS011;3987;51.458;7.238;2023-02-15T02:16:09;33.93;;;20.13;;
7883;SDS011;3987;51.458;7.238;2023-02-15T02:31:38;40.00;;;23.40;;
7883;SDS011;3987;51.458;7.238;2023-02-15T02:47:43;34.07;;;21.73;;
7883;SDS011;3987;51.458;7.238;2023-02-15T03:02:34;38.33;;;22.60;;
7883;SDS011;3987;51.458;7.238;2023-02-15T03:17:39;39.70;;;23.27;;
7883;SDS011;3987;51.458;7.238;2023-02-15T03:32:41;41.43;;;24.30;;
7883;SDS011;3987;51.458;7.238;2023-02-15T03:47:44;39.47;;;24.03;;
7883;SDS011;3987;51.458;7.238;2023-02-15T04:03:09;41.27;;;24.37;;
7883;SDS011;3987;51.458;7.238;2023-02-15T04:18:09;40.00;;;24.00;;
7883;SDS011;3987;51.458;7.238;2023-02-15T04:33:10;38.47;;;23.80;;
7883;SDS011;3987;51.458;7.238;2023-02-15T04:48:10;41.27;;;24.37;;
7883;SDS011;3987;51.458;7.238;2023-02-15T05:03:11;45.47;;;25.23;;
7883;SDS011;3987;51.458;7.238;2023-02-15T05:18:11;43.43;;;26.00;;
7883;SDS011;3987;51.458;7.238;2023-02-15T05:33:11;43.70;;;26.20;;
7883;SDS011;3987;51.458;7.238;2023-02-15T05:48:12;45.47;;;27.40;;
7883;SDS011;3987;51.458;7.238;2023-02-15T06:03:12;46.80;;;25.50;;
7883;SDS011;3987;51.458;7.238;2023-02-15T06:18:12;45.43;;;24.63;;
7883;SDS011;3987;51.458;7.238;2023-02-15T06:33:13;42.90;;;23.70;;
7883;SDS011;3987;51.458;7.238;2023-02-15T06:48:13;49.77;;;26.73;;
7883;SDS011;3987;51.458;7.238;2023-02-15T07:03:14;42.20;;;25.20;;
7883;SDS011;3987;51.458;7.238;2023-02-15T07:18:15;49.20;;;25.93;;
7883;SDS011;3987;51.458;7.238;2023-02-15T07:33:15;48.83;;;25.77;;
7883;SDS011;3987;51.458;7.238;2023-02-15T07:48:24;50.73;;;24.60;;
7883;SDS011;3987;51.458;7.238;2023-02-15T08:03:25;44.67;;;24.50;;
7883;SDS011;3987;51.458;7.238;2023-02-15T08:18:31;36.13;;;21.60;;
7883;SDS011;3987;51.458;7.238;2023-02-15T08:33:31;31.43;;;20.03;;
7883;SDS011;3987;51.458;7.238;2023-02-15T08:48:32;28.13;;;18.60;;
7883;SDS011;3987;51.458;7.238;2023-02-15T09:03:32;25.90;;;16.67;;
7883;SDS011;3987;51.458;7.238;2023-02-15T09:18:34;22.70;;;16.23;;
7883;SDS011;3987;51.458;7.238;2023-02-15T09:33:37;21.10;;;15.13;;
7883;SDS011;3987;51.458;7.238;2023-02-15T09:48:40;21.13;;;14.20;;
7883;SDS011;3987;51.458;7.238;2023-02-15T10:03:51;25.10;;;13.43;;
7883;SDS011;3987;51.458;7.238;2023-02-15T10:34:21;18.50;;;13.10;;
7883;SDS011;3987;51.458;7.238;2023-02-15T11:21:12;13.73;;;11.33;;
7883;SDS011;3987;51.458;7.238;2023-02-15T11:35:59;17.17;;;11.33;;
7883;SDS011;3987;51.458;7.238;2023-02-15T11:51:02;12.17;;;9.83;;
7883;SDS011;3987;51.458;7.238;2023-02-15T12:06:03;11.33;;;9.90;;
7883;SDS011;3987;51.458;7.238;2023-02-15T12:21:08;11.03;;;9.87;;
7883;SDS011;3987;51.458;7.238;2023-02-15T12:36:18;9.50;;;8.17;;
7883;SDS011;3987;51.458;7.238;2023-02-15T12:51:20;11.23;;;8.37;;
7883;SDS011;3987;51.458;7.238;2023-02-15T13:06:21;9.03;;;8.23;;
7883;SDS011;3987;51.458;7.238;2023-02-15T13:21:23;10.57;;;9.20;;
7883;SDS011;3987;51.458;7.238;2023-02-15T14:22:42;23.03;;;11.00;;
7883;SDS011;3987;51.458;7.238;2023-02-15T14:53:40;13.70;;;10.53;;
7883;SDS011;3987;51.458;7.238;2023-02-15T15:08:37;16.13;;;10.67;;
7883;SDS011;3987;51.458;7.238;2023-02-15T15:23:39;13.43;;;11.47;;
7883;SDS011;3987;51.458;7.238;2023-02-15T15:53:44;14.57;;;10.93;;
7883;SDS011;3987;51.458;7.238;2023-02-15T16:08:48;15.93;;;10.17;;
7883;SDS011;3987;51.458;7.238;2023-02-15T16:23:55;19.47;;;11.93;;
7883;SDS011;3987;51.458;7.238;2023-02-15T16:39:17;19.07;;;11.53;;
7883;SDS011;3987;51.458;7.238;2023-02-15T16:54:20;19.73;;;11.93;;
7883;SDS011;3987;51.458;7.238;2023-02-15T17:09:21;17.40;;;11.90;;
7883;SDS011;3987;51.458;7.238;2023-02-15T17:24:28;17.90;;;11.80;;
7883;SDS011;3987;51.458;7.238;2023-02-15T17:39:35;19.73;;;12.67;;
7883;SDS011;3987;51.458;7.238;2023-02-15T17:54:36;21.27;;;13.70;;
7883;SDS011;3987;51.458;7.238;2023-02-15T18:09:55;18.93;;;13.03;;
7883;SDS011;3987;51.458;7.238;2023-02-15T18:25:15;17.27;;;14.27;;
7883;SDS011;3987;51.458;7.238;2023-02-15T18:40:18;17.70;;;14.53;;
7883;SDS011;3987;51.458;7.238;2023-02-15T18:55:21;19.33;;;14.87;;
7883;SDS011;3987;51.458;7.238;2023-02-15T19:10:24;22.07;;;14.70;;
7883;SDS011;3987;51.458;7.238;2023-02-15T19:25:27;20.53;;;14.80;;
7883;SDS011;3987;51.458;7.238;2023-02-15T19:40:29;24.50;;;14.73;;
7883;SDS011;3987;51.458;7.238;2023-02-15T19:55:32;20.57;;;16.17;;
7883;SDS011;3987;51.458;7.238;2023-02-15T20:10:33;26.37;;;15.93;;
7883;SDS011;3987;51.458;7.238;2023-02-15T20:25:34;23.23;;;16.43;;
7883;SDS011;3987;51.458;7.238;2023-02-15T20:40:34;24.60;;;17.37;;
7883;SDS011;3987;51.458;7.238;2023-02-15T20:55:35;24.27;;;17.00;;
7883;SDS011;3987;51.458;7.238;2023-02-15T21:10:35;26.83;;;17.60;;
7883;SDS011;3987;51.458;7.238;2023-02-15T21:25:36;27.67;;;18.13;;
7883;SDS011;3987;51.458;7.238;2023-02-15T21:40:37;31.17;;;18.53;;
7883;SDS011;3987;51.458;7.238;2023-02-15T21:55:37;27.70;;;18.57;;
7883;SDS011;3987;51.458;7.238;2023-02-15T22:10:38;28.33;;;19.67;;
7883;SDS011;3987;51.458;7.238;2023-02-15T22:25:39;26.03;;;18.87;;
7883;SDS011;3987;51.458;7.238;2023-02-15T22:40:40;28.23;;;20.33;;
7883;SDS011;3987;51.458;7.238;2023-02-15T22:55:40;26.70;;;19.20;;
7883;SDS011;3987;51.458;7.238;2023-02-15T23:10:41;29.63;;;20.10;;
7883;SDS011;3987;51.458;7.238;2023-02-15T23:25:43;35.30;;;21.63;;
7883;SDS011;3987;51.458;7.238;2023-02-15T23:40:45;31.97;;;20.93;;
7883;SDS011;3987;51.458;7.238;2023-02-15T23:56:09;32.10;;;21.53;;
